FESTIVAL AEREO GIJON 2022

0Semanas0Dias0Horas0Minutos0Segundos

Rehearsals

Sunset Timing

Sunday Timing

Maritime Restrictions

LEAS fuel truck parking

Weather Report AEMET

ASTURIAS AIRPORT LEAS METAR&TAF AND WIND

LEAS Airport METAR:

LEAS 141230Z 33006KT 260V030 CAVOK 23/15 Q1012 NOSIG

LEAS Airport TAF:

TAF TAF LEAS 140800Z 1409/1509 29008KT 9999 FEW030 TX22/1413Z TN14/1505Z PROB40 TEMPO 1420/1424 BKN010